San Ardo, CA (93450)

7:27 AM PST on December 18, 2014 (GMT -0800)
Heritage Ranch Riverview Complex | Change Station
CLOSE
Current Station
Personal Weather Station
Location: Heritage Ranch, CA
Elevation: 1082 ft
Nearby Weather Stations

Elev 1082 ft 35.74 °N, 120.87 °W | Updated 6 minutes ago

Mostly Cloudy
Mostly Cloudy
46.5 °F
Feels Like 46 °F
N
0.0
Wind Variable Wind from North
Gusts 1.0 mph

Today
High -- | Low -- °F
--% Chance of Precip.
Yesterday
High -- | Low -- °F
Precip. -- in
7:08 AM 4:51 PM
Waning Crescent, 14% visible
Pressure 30.13 in
Visibility 10.0 miles
Clouds Mostly Cloudy 2700 ft
Overcast 3200 ft
Windchill 46 °F
Dew Point 46 °F
Humidity 98%
Rainfall 0.04 in
Snow Depth Not available.
UV 0 out of 12
Pollen 1.80 out of 12
Air Quality Not available.
Flu Activity Not available.
SPECI KPRB 181502Z AUTO 00000KT 10SM BKN027 OVC032 09/07 A3013 RMK AO2 T00940067 TSNO

More Conditions Fewer Conditions

Pressure 30.13 in
Visibility 10.0 miles
Clouds Mostly Cloudy 2700 ft
Overcast 3200 ft
Windchill 46 °F
Dew Point 46 °F
Humidity 98%
Rainfall 0.04 in
Snow Depth Not available.
UV 0 out of 12
Pollen 1.80 out of 12
Air Quality Not available.
Flu Activity Not available.
SPECI KPRB 181502Z AUTO 00000KT 10SM BKN027 OVC032 09/07 A3013 RMK AO2 T00940067 TSNO

More Conditions Fewer Conditions

10-Day Weather Forecast

Almanac

Astronomy

Dec. 18, 2014 Rise Set
Actual Time
Civil Twilight
Nautical Twilight
Astronomical Twilight
Moon
Length of Visible Light
Length of Day
Tomorrow will be .
, % of the Moon is Illuminated

Today's Extremes

State Highs State Lows

Community

WunderPhotos

Upload Photos

1,778,947 photos uploaded!

WunderBlogs® & News

Nearby

Air Quality

  Air Quality AQ Index Pollutant
Not available.

Snow Depth

Station Depth Elevation

Earthquake Activity

City Distance Mag. Time & Date
Minimum magnitude displayed is 2.5.

Coastal Water Temperatures

Place Temperature

Nearby Weather Stations